Terminal Aerodrome Forecast
Issued by NWS Upton, NY

Home | Current Version | Previous Version | Text Only | Print | Product List | Glossary On
Versions: 1 2 3 4 5 6 7 8 9 10 11 12 13 14 15 16 17 18 19 20 21 22 23 24 25 26 27 28 29 30 31 32 33 34 35 36
000
FTUS41 KOKX 291733
TAFLGA
TAF
KLGA 291733Z 2918/3018 05015KT P6SM FEW020 BKN100
     FM292100 06010KT P6SM FEW050 SCT250
     FM300100 VRB04KT P6SM FEW150 SCT250
     FM301200 04008KT P6SM BKN050 BKN170
     FM301600 08006KT P6SM BKN050 BKN120=

USA.gov is the U.S. government's official web portal to all federal, state and local government web resources and services.